Map

Track Data

SID SEASON NUMBER BASIN SUBBASIN NAME ISO_TIME NATURE LAT LON WMO_WIND WMO_PRES WMO_AGENCY TRACK_TYPE DIST2LAND LANDFALL IFLAG USA_AGENCY USA_ATCF_ID USA_LAT USA_LON USA_RECORD USA_STATUS USA_WIND USA_PRES USA_SSHS USA_R34_NE USA_R34_SE USA_R34_SW USA_R34_NW USA_R50_NE USA_R50_SE USA_R50_SW USA_R50_NW USA_R64_NE USA_R64_SE USA_R64_SW USA_R64_NW USA_POCI USA_ROCI USA_RMW USA_EYE TOKYO_LAT TOKYO_LON TOKYO_GRADE TOKYO_WIND TOKYO_PRES TOKYO_R50_DIR TOKYO_R50_LONG TOKYO_R50_SHORT TOKYO_R30_DIR TOKYO_R30_LONG TOKYO_R30_SHORT TOKYO_LAND CMA_LAT CMA_LON CMA_CAT CMA_WIND CMA_PRES HKO_LAT HKO_LON HKO_CAT HKO_WIND HKO_PRES NEWDELHI_LAT NEWDELHI_LON NEWDELHI_GRADE NEWDELHI_WIND NEWDELHI_PRES NEWDELHI_CI NEWDELHI_DP NEWDELHI_POCI REUNION_LAT REUNION_LON REUNION_TYPE REUNION_WIND REUNION_PRES REUNION_TNUM REUNION_CI REUNION_RMW REUNION_R34_NE REUNION_R34_SE REUNION_R34_SW REUNION_R34_NW REUNION_R50_NE REUNION_R50_SE REUNION_R50_SW REUNION_R50_NW REUNION_R64_NE REUNION_R64_SE REUNION_R64_SW REUNION_R64_NW BOM_LAT BOM_LON BOM_TYPE BOM_WIND BOM_PRES BOM_TNUM BOM_CI BOM_RMW BOM_R34_NE BOM_R34_SE BOM_R34_SW BOM_R34_NW BOM_R50_NE BOM_R50_SE BOM_R50_SW BOM_R50_NW BOM_R64_NE BOM_R64_SE BOM_R64_SW BOM_R64_NW BOM_ROCI BOM_POCI BOM_EYE BOM_POS_METHOD BOM_PRES_METHOD NADI_LAT NADI_LON NADI_CAT NADI_WIND NADI_PRES WELLINGTON_LAT WELLINGTON_LON WELLINGTON_WIND WELLINGTON_PRES DS824_LAT DS824_LON DS824_STAGE DS824_WIND DS824_PRES TD9636_LAT TD9636_LON TD9636_STAGE TD9636_WIND TD9636_PRES TD9635_LAT TD9635_LON TD9635_WIND TD9635_PRES TD9635_ROCI NEUMANN_LAT NEUMANN_LON NEUMANN_CLASS NEUMANN_WIND NEUMANN_PRES MLC_LAT MLC_LON MLC_CLASS MLC_WIND MLC_PRES USA_GUST BOM_GUST BOM_GUST_PER REUNION_GUST REUNION_GUST_PER USA_SEAHGT USA_SEARAD_NE USA_SEARAD_SE USA_SEARAD_SW USA_SEARAD_NW STORM_SPEED STORM_DIR
1960161N14265 1960 27 EP MM ANNETTE 1960-06-09 00:00:00 TS 13.7000 -95.4000 45 hurdat_epa main 239 230 O________OO___ hurdat_epa EP011960 13.7000 -95.4000 TS 45 0 13.7000 -95.4000 TC 45 13.7000 -95.4000 2 7 270
1960161N14265 1960 27 EP MM ANNETTE 1960-06-09 03:00:00 TS 13.6997 -95.7475 main 230 219 P________PP___ EP011960 13.7026 -95.7450 TS 45 0 13.7026 -95.7450 TC 45 13.6879 -95.7578 2 7 270
1960161N14265 1960 27 EP MM ANNETTE 1960-06-09 06:00:00 TS 13.6961 -96.1045 45 hurdat_epa main 219 212 O________OP___ hurdat_epa EP011960 13.7000 -96.1000 TS 45 0 13.7000 -96.1000 TC 45 13.6804 -96.1224 2 7 269
1960161N14265 1960 27 EP MM ANNETTE 1960-06-09 09:00:00 TS 13.6905 -96.4822 main 212 212 P________PP___ EP011960 13.6924 -96.4776 TS 45 0 13.6924 -96.4776 TC 45 13.6828 -96.5009 2 8 270
1960161N14265 1960 27 EP MM ANNETTE 1960-06-09 12:00:00 TS 13.7000 -96.9000 45 hurdat_epa main 215 215 O________OO___ hurdat_epa EP011960 13.7000 -96.9000 TS 45 0 13.7000 -96.9000 TC 45 13.7000 -96.9000 2 9 273
1960161N14265 1960 27 EP MM ANNETTE 1960-06-09 15:00:00 TS 13.7354 -97.3793 main 229 223 P________PP___ EP011960 13.7350 -97.3925 TS 45 0 13.7350 -97.3925 TC 45 13.7369 -97.3262 2 10 276
1960161N14265 1960 27 EP MM ANNETTE 1960-06-09 18:00:00 TS 13.7994 -97.8766 45 hurdat_epa main 243 238 O________OP___ hurdat_epa EP011960 13.8000 -97.9000 TS 45 0 13.8000 -97.9000 TC 45 13.7970 -97.7830 2 9 279
1960161N14265 1960 27 EP MM ANNETTE 1960-06-09 21:00:00 TS 13.8845 -98.3227 main 241 239 P________PP___ EP011960 13.8847 -98.3351 TS 45 0 13.8847 -98.3351 TC 45 13.8836 -98.2732 2 9 283
1960161N14265 1960 27 EP MM ANNETTE 1960-06-10 00:00:00 TS 14.0000 -98.8000 45 hurdat_epa main 248 248 O________OO___ hurdat_epa EP011960 14.0000 -98.8000 TS 45 0 14.0000 -98.8000 TC 45 14.0000 -98.8000 2 11 284
1960161N14265 1960 27 EP MM ANNETTE 1960-06-10 03:00:00 TS 14.1356 -99.3749 main 260 250 P________PP___ EP011960 14.1350 -99.3776 TS 45 0 14.1350 -99.3776 TC 45 14.1381 -99.3641 2 12 285
1960161N14265 1960 27 EP MM ANNETTE 1960-06-10 06:00:00 TS 14.3010 -99.9925 45 hurdat_epa main 269 260 O________OP___ hurdat_epa EP011960 14.3000 -100.000 TS 45 0 14.3000 -100.000 TC 45 14.3049 -99.9626 2 12 287
1960161N14265 1960 27 EP MM ANNETTE 1960-06-10 09:00:00 TS 14.4867 -100.596 main 264 262 P________PP___ EP011960 14.4848 -100.600 TS 45 0 14.4848 -100.600 TC 45 14.4943 -100.580 2 12 289
1960161N14265 1960 27 EP MM ANNETTE 1960-06-10 12:00:00 TS 14.7000 -101.200 45 hurdat_epa main 275 271 O________OO___ hurdat_epa EP011960 14.7000 -101.200 TS 45 0 14.7000 -101.200 TC 45 14.7000 -101.200 2 13 291
1960161N14265 1960 27 EP MM ANNETTE 1960-06-10 15:00:00 TS 14.9460 -101.803 main 278 267 P________PP___ EP011960 14.9498 -101.800 TS 45 0 14.9498 -101.800 TC 45 14.9307 -101.816 2 13 293
1960161N14265 1960 27 EP MM ANNETTE 1960-06-10 18:00:00 TS 15.1945 -102.406 45 hurdat_epa main 272 272 O________OP___ hurdat_epa EP011960 15.2000 -102.400 TS 45 0 15.2000 -102.400 TC 45 15.1723 -102.429 2 13 292
1960161N14265 1960 27 EP MM ANNETTE 1960-06-10 21:00:00 TS 15.4185 -103.018 main 289 281 P________PP___ EP011960 15.4225 -103.015 TS 45 0 15.4225 -103.015 TC 45 15.4027 -103.028 2 12 289
1960161N14265 1960 27 EP MM ANNETTE 1960-06-11 00:00:00 TS 15.6000 -103.600 45 hurdat_epa main 288 285 O________OO___ hurdat_epa EP011960 15.6000 -103.600 TS 45 0 15.6000 -103.600 TC 45 15.6000 -103.600 2 11 286
1960161N14265 1960 27 EP MM ANNETTE 1960-06-11 03:00:00 TS 15.7205 -104.119 main 295 292 P________PP___ EP011960 15.7148 -104.115 TS 45 0 15.7148 -104.115 TC 45 15.7434 -104.133 2 10 282
1960161N14265 1960 27 EP MM ANNETTE 1960-06-11 06:00:00 TS 15.8103 -104.608 45 hurdat_epa main 303 302 O________OP___ hurdat_epa EP011960 15.8000 -104.600 TS 45 0 15.8000 -104.600 TC 45 15.8517 -104.638 2 10 281
1960161N14265 1960 27 EP MM ANNETTE 1960-06-11 09:00:00 TS 15.9128 -105.111 main 317 317 P________PP___ EP011960 15.9074 -105.107 TS 45 0 15.9074 -105.107 TC 45 15.9341 -105.124 2 10 281
1960161N14265 1960 27 EP MM ANNETTE 1960-06-11 12:00:00 TS 16.0000 -105.600 45 hurdat_epa main 340 340 O________OO___ hurdat_epa EP011960 16.0000 -105.600 TS 45 0 16.0000 -105.600 TC 45 16.0000 -105.600 2 9 279
1960161N14265 1960 27 EP MM ANNETTE 1960-06-11 15:00:00 TS 16.0586 -106.053 main 370 370 P________PP___ EP011960 16.0573 -106.050 TS 45 0 16.0573 -106.050 TC 45 16.0637 -106.066 2 9 277
1960161N14265 1960 27 EP MM ANNETTE 1960-06-11 18:00:00 TS 16.1028 -106.506 45 hurdat_epa main 390 390 O________OP___ hurdat_epa EP011960 16.1000 -106.500 TS 45 0 16.1000 -106.500 TC 45 16.1140 -106.528 2 9 276
1960161N14265 1960 27 EP MM ANNETTE 1960-06-11 21:00:00 TS 16.1514 -106.988 main 408 408 P________PP___ EP011960 16.1499 -106.985 TS 45 0 16.1499 -106.985 TC 45 16.1574 -107.001 2 10 276
1960161N14265 1960 27 EP MM ANNETTE 1960-06-12 00:00:00 TS 16.2000 -107.500 45 hurdat_epa main 441 441 O________OO___ hurdat_epa EP011960 16.2000 -107.500 TS 45 0 16.2000 -107.500 TC 45 16.2000 -107.500 2 10 276
1960161N14265 1960 27 EP MM ANNETTE 1960-06-12 03:00:00 TS 16.2492 -108.036 main 477 476 P________PP___ EP011960 16.2499 -108.035 TS 45 0 16.2499 -108.035 TC 45 16.2466 -108.038 2 11 275
1960161N14265 1960 27 EP MM ANNETTE 1960-06-12 06:00:00 TS 16.2993 -108.601 45 hurdat_epa main 515 515 O________OP___ hurdat_epa EP011960 16.3000 -108.600 TS 45 0 16.3000 -108.600 TC 45 16.2967 -108.607 2 11 275
1960161N14265 1960 27 EP MM ANNETTE 1960-06-12 09:00:00 TS 16.3500 -109.194 main 561 553 P________PP___ EP011960 16.3504 -109.192 TS 45 0 16.3504 -109.192 TC 45 16.3484 -109.198 2 12 275
1960161N14265 1960 27 EP MM ANNETTE 1960-06-12 12:00:00 TS 16.4000 -109.800 45 hurdat_epa main 602 O________OO___ hurdat_epa EP011960 16.4000 -109.800 TS 45 0 16.4000 -109.800 TC 45 16.4000 -109.800 2 12 275

About IBTrACS Database

This database is a web-friendly format of International Best Track Archive for Climate Stewardship (IBTrACS), a global best track data archive curated by NOAA dating back to 1842.

Updated: 2021-12-06